This is the latest recevied weather packets stored in our database for station/object KG7FOQ-13. If no packets are shown the sender has not sent any weather packets the latest 10 day(s).
| Time | Temp. | Humidity | Pressure | Rain* | Wind** | Luminosity | Snow |
|---|---|---|---|---|---|---|---|
| 1777963604 | 11.67° C | 43% | 1005.5 hPa | 0 mm | - | - | - |
| 1777963303 | 11.67° C | 43% | 1005.3 hPa | 0 mm | - | - | - |
| 1777962702 | 11.11° C | 44% | 1005.2 hPa | 0 mm | - | - | - |
| 1777962402 | 11.11° C | 43% | 1005.2 hPa | 0 mm | - | - | - |
| 1777962101 | 11.11° C | 44% | 1005.2 hPa | 0 mm | - | - | - |
| 1777961800 | 11.67° C | 44% | 1005.1 hPa | 0 mm | - | - | - |
| 1777961497 | 11.67° C | 43% | 1005.1 hPa | 0 mm | - | - | - |
| 1777960895 | 12.78° C | 38% | 1005.1 hPa | 0 mm | - | - | - |
| 1777960595 | 12.78° C | 38% | 1005.1 hPa | 0 mm | - | - | - |
| 1777960294 | 12.22° C | 37% | 1005 hPa | 0 mm | - | - | - |
| 1777959992 | 12.22° C | 38% | 1005.1 hPa | 0 mm | - | - | - |
| 1777959691 | 11.67° C | 41% | 1005 hPa | 0 mm | - | - | - |
| 1777959390 | 11.67° C | 43% | 1004.8 hPa | 0 mm | - | - | - |
| 1777959090 | 11.67° C | 44% | 1004.8 hPa | 0 mm | - | - | - |
| 1777958790 | 11.67° C | 42% | 1004.8 hPa | 0 mm | - | - | - |
| 1777958487 | 13.33° C | 37% | 1004.8 hPa | 0 mm | - | - | - |
| 1777958186 | 13.89° C | 36% | 1004.8 hPa | 0 mm | - | - | - |
| 1777957886 | 13.89° C | 36% | 1004.8 hPa | 0 mm | - | - | - |
| 1777957585 | 13.89° C | 37% | 1004.8 hPa | 0 mm | - | - | - |
| 1777957285 | 13.89° C | 38% | 1005 hPa | 0 mm | - | - | - |
| 1777956984 | 13.89° C | 37% | 1005 hPa | 0 mm | - | - | - |
| 1777956684 | 13.33° C | 37% | 1005 hPa | 0 mm | - | - | - |
| 1777956383 | 14.44° C | 37% | 1005 hPa | 0 mm | - | - | - |
| 1777956083 | 14.44° C | 38% | 1005 hPa | 0 mm | - | - | - |
| 1777955825 | 14.44° C | 38% | 1005 hPa | 0 mm | - | - | - |
* Rain latest hour (hover to see other rain measurements)
** Current wind speed in m/s (hover to see current wind gust speed)